Flugplatz Auerbach

Für EDOA sind keine METAR/TAF Berichte vorhanden.
Es werden die Flugwettermeldungen vom Flugplatz Hof-Plauen in 43 km Entfernung angezeigt.

Bericht für EDQM

vom 31.05. um 10:20 UTC

Wind 12 kt aus 20°

Sichtweite 10 km oder mehr

aufgebrochene Bewölkung in 2900 ft

Temperatur 12.0°C

Taupunkt 5.0°C

Luftfeuchtigkeit 62%

Luftdruck 1022 hPa

EDQM 311020Z 02012KT 320V060 9999 BKN029 12/05 Q1022

Prognose für EDQM

vom 31.05. um 08:00 UTC

Zwischen 09:00 UTC und 18:00 UTC

Wind 8 kt aus 20°

Sichtweite 10 km oder mehr

aufgelockert bewölkt in 2000 ft

TAF EDQM 310800Z 3109/3118 02008KT 9999 SCT020
Impressum